createdAt,value
2022-10-03T00:02:01.476Z,15.61
2022-10-03T00:04:41.780Z,15.64
2022-10-03T00:07:34.132Z,16.22
2022-10-03T00:10:06.984Z,16.27
2022-10-03T00:12:58.823Z,16.12
2022-10-03T00:15:30.058Z,15.89
2022-10-03T00:18:13.093Z,15.77
2022-10-03T00:21:08.875Z,15.45
2022-10-03T00:23:58.144Z,15.96
2022-10-03T00:26:38.176Z,16.31
2022-10-03T00:29:24.620Z,16.68
2022-10-03T00:31:57.376Z,16.76
2022-10-03T00:34:43.654Z,16.44
2022-10-03T00:37:31.343Z,16.51
2022-10-03T00:40:21.688Z,16.64
2022-10-03T00:43:20.441Z,16.49
2022-10-03T00:46:25.863Z,16.70
2022-10-03T00:48:59.446Z,15.96
2022-10-03T00:51:39.355Z,15.88
2022-10-03T00:54:07.199Z,16.17
2022-10-03T00:56:40.299Z,16.41
2022-10-03T00:59:32.687Z,15.99
2022-10-03T01:02:20.084Z,16.33
2022-10-03T01:05:09.610Z,16.40
2022-10-03T01:07:56.270Z,15.91
2022-10-03T01:10:53.527Z,16.30
2022-10-03T01:13:32.643Z,15.98
2022-10-03T01:16:05.059Z,15.82
2022-10-03T01:18:42.073Z,15.35
2022-10-03T01:21:39.493Z,15.83
2022-10-03T01:24:26.036Z,15.77
2022-10-03T01:27:00.717Z,15.35
2022-10-03T01:30:09.218Z,15.29
2022-10-03T01:32:43.773Z,15.05
2022-10-03T01:35:20.284Z,15.66
2022-10-03T01:38:09.772Z,15.10
2022-10-03T01:40:44.921Z,15.75
2022-10-03T01:43:14.827Z,15.68
2022-10-03T01:45:48.416Z,15.63
2022-10-03T01:48:23.930Z,15.74
2022-10-03T01:50:54.249Z,15.47
2022-10-03T01:53:47.745Z,15.81
2022-10-03T01:56:55.767Z,15.52
2022-10-03T01:59:29.350Z,15.03
2022-10-03T02:02:20.555Z,15.05
2022-10-03T02:04:59.687Z,15.25
2022-10-03T02:07:40.791Z,15.07
2022-10-03T02:10:50.348Z,14.86
2022-10-03T02:13:23.410Z,15.17
2022-10-03T02:15:55.572Z,14.99
2022-10-03T02:18:46.222Z,15.25
2022-10-03T02:21:24.352Z,15.34
2022-10-03T02:24:07.866Z,15.62
2022-10-03T02:26:47.513Z,15.55
2022-10-03T02:29:36.264Z,15.84
2022-10-03T02:32:27.409Z,15.88
2022-10-03T02:35:22.928Z,16.01
2022-10-03T02:37:59.459Z,16.23
2022-10-03T02:41:00.999Z,15.93
2022-10-03T02:43:48.139Z,16.13
2022-10-03T02:46:42.940Z,16.17
2022-10-03T02:49:37.505Z,16.14
2022-10-03T02:52:11.147Z,16.17
2022-10-03T02:55:09.030Z,16.28
2022-10-03T02:57:55.315Z,16.43
2022-10-03T03:00:34.667Z,15.57
2022-10-03T03:03:24.809Z,15.87
2022-10-03T03:06:29.326Z,16.11
2022-10-03T03:09:30.891Z,16.09
2022-10-03T03:12:21.779Z,15.68
2022-10-03T03:15:10.207Z,16.06
2022-10-03T03:17:46.262Z,16.09
2022-10-03T03:20:54.081Z,16.27
2022-10-03T03:23:40.267Z,16.41
2022-10-03T03:26:42.543Z,16.41
2022-10-03T03:29:44.614Z,16.53
2022-10-03T03:32:28.288Z,16.07
2022-10-03T03:35:31.396Z,16.40
2022-10-03T03:38:34.056Z,16.44
2022-10-03T03:41:37.558Z,16.24
2022-10-03T03:44:14.256Z,15.60
2022-10-03T03:47:06.346Z,16.16
2022-10-03T03:49:43.387Z,16.18
2022-10-03T03:52:49.190Z,16.48
2022-10-03T03:55:23.601Z,16.37
2022-10-03T03:58:18.493Z,16.45
2022-10-03T04:01:03.582Z,16.63
2022-10-03T04:03:56.392Z,16.50
2022-10-03T04:06:52.265Z,16.53
2022-10-03T04:09:19.824Z,16.59
2022-10-03T04:12:32.158Z,16.50
2022-10-03T04:15:12.285Z,16.52
2022-10-03T04:18:24.883Z,16.36
2022-10-03T04:21:07.837Z,15.96
2022-10-03T04:23:47.272Z,16.10
2022-10-03T04:26:32.996Z,16.15
2022-10-03T04:29:25.340Z,16.19
2022-10-03T04:32:20.152Z,15.93
2022-10-03T04:35:04.516Z,15.78
2022-10-03T04:37:41.893Z,16.15
2022-10-03T04:40:27.759Z,16.14
2022-10-03T04:43:37.062Z,16.09
2022-10-03T04:46:24.069Z,16.13
2022-10-03T04:49:12.150Z,16.18
2022-10-03T04:51:43.216Z,16.26
2022-10-03T04:54:24.994Z,15.86
2022-10-03T04:57:17.423Z,16.17
2022-10-03T04:59:51.151Z,16.16
2022-10-03T05:02:21.628Z,16.00
2022-10-03T05:04:55.867Z,15.75
2022-10-03T05:07:41.490Z,15.69
2022-10-03T05:10:47.168Z,15.46
2022-10-03T05:13:33.252Z,15.29
2022-10-03T05:16:15.149Z,15.03
2022-10-03T05:18:52.499Z,14.86
2022-10-03T05:21:20.075Z,14.28
2022-10-03T05:24:04.543Z,14.98
2022-10-03T05:26:58.835Z,14.88
2022-10-03T05:29:40.246Z,14.45
2022-10-03T05:32:20.525Z,14.59
2022-10-03T05:35:15.850Z,14.62
2022-10-03T05:38:19.259Z,14.22
2022-10-03T05:41:26.382Z,14.24
2022-10-03T05:44:16.853Z,14.12
2022-10-03T05:47:29.073Z,14.67
2022-10-03T05:50:18.161Z,13.90
2022-10-03T05:52:53.527Z,14.35
2022-10-03T05:55:24.126Z,14.52
2022-10-03T05:58:22.781Z,14.32
2022-10-03T06:01:17.650Z,14.39
2022-10-03T06:04:03.838Z,14.75
2022-10-03T06:07:10.233Z,14.26
2022-10-03T06:09:40.715Z,14.55
2022-10-03T06:12:23.196Z,14.32
2022-10-03T06:15:05.068Z,13.91
2022-10-03T06:17:50.801Z,14.41
2022-10-03T06:20:30.395Z,14.27
2022-10-03T06:23:20.942Z,14.25
2022-10-03T06:26:26.508Z,14.10
2022-10-03T06:29:28.030Z,14.33
2022-10-03T06:32:17.413Z,14.06
2022-10-03T06:35:19.021Z,14.70
2022-10-03T06:38:05.471Z,14.27
2022-10-03T06:40:54.292Z,14.45
2022-10-03T06:43:49.149Z,14.64
2022-10-03T06:46:52.878Z,14.67
2022-10-03T06:49:32.754Z,14.82
2022-10-03T06:52:07.387Z,14.57
2022-10-03T06:55:04.950Z,14.88
2022-10-03T06:58:23.545Z,14.56
2022-10-03T07:01:12.953Z,15.13
2022-10-03T07:04:00.711Z,14.76
2022-10-03T07:07:05.824Z,14.80
2022-10-03T07:09:53.883Z,14.97
2022-10-03T07:12:43.815Z,14.93
2022-10-03T07:15:11.920Z,15.02
2022-10-03T07:18:17.114Z,14.66
2022-10-03T07:21:19.489Z,14.44
2022-10-03T07:24:10.075Z,14.20
2022-10-03T07:26:58.156Z,13.99
2022-10-03T07:29:44.559Z,14.16
2022-10-03T07:32:17.837Z,14.24
2022-10-03T07:35:04.160Z,14.86
2022-10-03T07:38:44.472Z,14.33
2022-10-03T07:41:32.514Z,14.36
2022-10-03T07:44:11.984Z,14.70
2022-10-03T07:47:00.800Z,14.15
2022-10-03T07:49:40.353Z,14.53
2022-10-03T07:52:59.058Z,14.30
2022-10-03T07:55:47.716Z,14.27
2022-10-03T07:58:31.221Z,14.86
2022-10-03T08:01:31.025Z,15.07
2022-10-03T08:04:01.395Z,14.80
2022-10-03T08:06:43.432Z,14.66
2022-10-03T08:09:26.949Z,14.81
2022-10-03T08:12:15.956Z,14.69
2022-10-03T08:14:57.872Z,15.16
2022-10-03T08:17:44.190Z,14.72
2022-10-03T08:20:34.962Z,15.12
2022-10-03T08:23:20.662Z,15.10
2022-10-03T08:26:17.449Z,14.98
2022-10-03T08:29:13.051Z,15.19
2022-10-03T08:31:59.578Z,15.70
2022-10-03T08:35:00.561Z,15.49
2022-10-03T08:37:40.256Z,15.65
2022-10-03T08:40:35.680Z,15.71
2022-10-03T08:43:40.798Z,15.90
2022-10-03T08:46:34.358Z,15.93
2022-10-03T08:49:35.191Z,15.98
2022-10-03T08:52:21.458Z,15.80
2022-10-03T08:55:15.798Z,15.75
2022-10-03T08:58:18.664Z,15.90
2022-10-03T09:01:20.502Z,15.76
2022-10-03T09:04:07.633Z,16.02
2022-10-03T09:07:16.517Z,16.01
2022-10-03T09:10:03.626Z,16.00
2022-10-03T09:13:06.073Z,15.77
2022-10-03T09:16:04.829Z,16.17
2022-10-03T09:18:57.501Z,16.15
2022-10-03T09:21:37.268Z,16.42
2022-10-03T09:24:30.133Z,16.28
2022-10-03T09:27:10.105Z,15.86
2022-10-03T09:30:12.198Z,16.22
2022-10-03T09:33:17.136Z,17.06
2022-10-03T09:35:45.333Z,16.83
2022-10-03T09:38:37.618Z,16.44
2022-10-03T09:41:28.480Z,16.00
2022-10-03T09:44:20.896Z,16.46
2022-10-03T09:47:22.738Z,16.26
2022-10-03T09:49:53.164Z,16.35
2022-10-03T09:52:50.151Z,16.82
2022-10-03T09:55:36.434Z,16.57
2022-10-03T09:58:21.844Z,16.48
2022-10-03T10:01:07.679Z,16.20
2022-10-03T10:03:47.315Z,16.19
2022-10-03T10:06:24.935Z,16.30
2022-10-03T10:09:14.081Z,16.29
2022-10-03T10:12:09.917Z,16.76
2022-10-03T10:14:46.222Z,16.90
2022-10-03T10:17:46.576Z,17.02
2022-10-03T10:20:21.133Z,16.68
2022-10-03T10:23:03.325Z,16.75
2022-10-03T10:25:33.867Z,16.63
2022-10-03T10:28:26.988Z,16.25
2022-10-03T10:31:17.718Z,16.46
2022-10-03T10:34:07.133Z,16.41
2022-10-03T10:37:08.474Z,16.30
2022-10-03T10:39:59.234Z,17.04
2022-10-03T10:42:54.329Z,17.06
2022-10-03T10:45:35.985Z,16.99
2022-10-03T10:48:46.507Z,16.97
2022-10-03T10:51:51.354Z,16.72
2022-10-03T10:54:18.974Z,16.72
2022-10-03T10:57:22.604Z,16.70
2022-10-03T11:00:11.563Z,16.65
2022-10-03T11:03:03.869Z,16.79
2022-10-03T11:05:42.747Z,17.02
2022-10-03T11:08:41.956Z,16.30
2022-10-03T11:11:37.513Z,16.44
2022-10-03T11:14:14.121Z,16.96
2022-10-03T11:17:02.896Z,16.65
2022-10-03T11:19:49.009Z,16.63
2022-10-03T11:22:48.162Z,16.81
2022-10-03T11:25:24.657Z,16.07
2022-10-03T11:28:18.967Z,16.96
2022-10-03T11:31:02.081Z,17.30
2022-10-03T11:33:48.896Z,16.21
2022-10-03T11:36:34.781Z,16.50
2022-10-03T11:39:05.630Z,16.62
2022-10-03T11:42:01.225Z,16.48
2022-10-03T11:44:34.505Z,16.54
2022-10-03T11:47:47.328Z,16.47
2022-10-03T11:50:35.144Z,16.47
2022-10-03T11:53:19.985Z,16.50
2022-10-03T11:55:51.609Z,16.50
2022-10-03T11:58:34.425Z,16.77
2022-10-03T12:01:27.289Z,16.65
2022-10-03T12:04:20.885Z,16.71
2022-10-03T12:07:17.342Z,16.49
2022-10-03T12:09:45.377Z,16.59
2022-10-03T12:12:19.111Z,16.64
2022-10-03T12:14:49.525Z,16.74
2022-10-03T12:17:33.596Z,16.43
2022-10-03T12:20:23.129Z,16.80
2022-10-03T12:22:53.284Z,16.25
2022-10-03T12:25:24.037Z,16.73
2022-10-03T12:28:21.487Z,16.70
2022-10-03T12:30:51.415Z,16.53
2022-10-03T12:33:54.392Z,15.95
2022-10-03T12:36:33.154Z,16.36
2022-10-03T12:39:39.274Z,16.45
2022-10-03T12:42:30.698Z,16.25
2022-10-03T12:45:04.351Z,16.82
2022-10-03T12:47:56.079Z,16.71
2022-10-03T12:50:57.612Z,16.45
2022-10-03T12:53:38.725Z,16.71
2022-10-03T12:56:18.848Z,17.48
2022-10-03T12:59:12.889Z,17.58
2022-10-03T13:01:46.619Z,17.06
2022-10-03T13:04:20.183Z,16.48
2022-10-03T13:07:08.976Z,16.75
2022-10-03T13:09:55.060Z,15.92
2022-10-03T13:12:40.298Z,15.72
2022-10-03T13:15:37.926Z,15.96
2022-10-03T13:18:32.285Z,15.63
2022-10-03T13:21:44.464Z,15.61
2022-10-03T13:24:37.066Z,15.89
2022-10-03T13:27:07.659Z,15.94
2022-10-03T13:29:40.549Z,15.78
2022-10-03T13:32:38.511Z,16.01
2022-10-03T13:35:43.701Z,16.05
2022-10-03T13:38:47.009Z,16.32
2022-10-03T13:41:29.563Z,16.31
2022-10-03T13:44:13.398Z,16.22
2022-10-03T13:46:53.582Z,15.65
2022-10-03T13:49:32.325Z,15.97
2022-10-03T13:52:18.307Z,16.14
2022-10-03T13:55:11.018Z,16.37
2022-10-03T13:58:23.268Z,16.39
2022-10-03T14:01:13.817Z,16.45
2022-10-03T14:04:15.069Z,16.41
2022-10-03T14:07:04.942Z,16.63
2022-10-03T14:10:03.855Z,16.39
2022-10-03T14:12:55.932Z,16.66
2022-10-03T14:15:29.826Z,16.56
2022-10-03T14:18:10.810Z,17.13
2022-10-03T14:21:20.896Z,16.62
2022-10-03T14:23:54.407Z,16.44
2022-10-03T14:26:40.514Z,16.04
2022-10-03T14:29:10.888Z,16.10
2022-10-03T14:31:44.043Z,16.53
2022-10-03T14:34:25.282Z,16.53
2022-10-03T14:37:08.306Z,16.87
2022-10-03T14:39:40.758Z,16.37
2022-10-03T14:42:41.740Z,16.43
2022-10-03T14:45:15.265Z,16.24
2022-10-03T14:47:48.206Z,16.75
2022-10-03T14:50:22.751Z,16.89
2022-10-03T14:53:09.049Z,16.45
2022-10-03T14:55:52.405Z,16.48
2022-10-03T14:58:29.444Z,16.50
2022-10-03T15:01:24.238Z,16.50
2022-10-03T15:04:12.849Z,16.89
2022-10-03T15:06:46.437Z,17.20
2022-10-03T15:09:22.401Z,17.03
2022-10-03T15:12:04.400Z,17.09
2022-10-03T15:14:35.150Z,17.54
2022-10-03T15:17:07.397Z,17.02
2022-10-03T15:19:44.133Z,17.00
2022-10-03T15:22:20.404Z,17.15
2022-10-03T15:24:49.114Z,16.79
2022-10-03T15:27:22.276Z,16.69
2022-10-03T15:30:02.359Z,16.89
2022-10-03T15:32:36.088Z,16.38
2022-10-03T15:35:05.327Z,16.68
2022-10-03T15:37:37.371Z,16.75
2022-10-03T15:40:12.525Z,16.57
2022-10-03T15:42:45.556Z,16.74
2022-10-03T15:45:21.830Z,16.11
2022-10-03T15:47:50.372Z,15.70
2022-10-03T15:50:22.466Z,15.91
2022-10-03T15:52:53.559Z,15.77
2022-10-03T15:55:35.109Z,16.11
2022-10-03T15:58:13.750Z,16.09
2022-10-03T16:00:41.959Z,16.11
2022-10-03T16:03:16.365Z,15.35
2022-10-03T16:06:07.138Z,15.18
2022-10-03T16:09:00.270Z,15.43
2022-10-03T16:11:36.157Z,15.53
2022-10-03T16:14:23.022Z,15.23
2022-10-03T16:17:16.330Z,15.20
2022-10-03T16:19:55.057Z,15.82
2022-10-03T16:22:44.855Z,15.43
2022-10-03T16:25:36.793Z,15.39
2022-10-03T16:28:13.117Z,15.68
2022-10-03T16:30:44.971Z,15.54
2022-10-03T16:33:26.921Z,15.64
2022-10-03T16:36:01.183Z,15.44
2022-10-03T16:38:36.116Z,15.60
2022-10-03T16:41:13.304Z,15.61
2022-10-03T16:43:41.307Z,15.57
2022-10-03T16:46:18.076Z,15.56
2022-10-03T16:49:04.618Z,15.17
2022-10-03T16:51:42.866Z,14.84
2022-10-03T16:54:15.250Z,15.34
2022-10-03T16:56:51.324Z,15.42
2022-10-03T16:59:20.013Z,15.11
2022-10-03T17:01:51.503Z,15.31
2022-10-03T17:04:32.975Z,15.01
2022-10-03T17:07:03.684Z,15.11
2022-10-03T17:09:41.828Z,15.71
2022-10-03T17:12:17.298Z,15.26
2022-10-03T17:14:45.247Z,15.48
2022-10-03T17:17:22.138Z,15.40
2022-10-03T17:20:17.065Z,15.41
2022-10-03T17:22:50.531Z,15.02
2022-10-03T17:25:18.395Z,15.17
2022-10-03T17:27:49.306Z,14.73
2022-10-03T17:30:25.203Z,14.71
2022-10-03T17:32:58.388Z,15.34
2022-10-03T17:35:50.203Z,15.83
2022-10-03T17:38:49.806Z,15.73
2022-10-03T17:41:40.617Z,15.45
2022-10-03T17:44:33.869Z,15.08
2022-10-03T17:47:22.980Z,15.67
2022-10-03T17:50:03.282Z,15.76
2022-10-03T17:52:31.343Z,15.89
2022-10-03T17:55:02.232Z,15.76
2022-10-03T17:57:36.880Z,15.21
2022-10-03T18:00:23.234Z,15.55
2022-10-03T18:03:12.804Z,15.11
2022-10-03T18:05:48.829Z,14.78
2022-10-03T18:08:24.162Z,15.13
2022-10-03T18:10:54.659Z,15.80
2022-10-03T18:13:27.564Z,15.38
2022-10-03T18:16:07.801Z,15.57
2022-10-03T18:19:09.659Z,14.88
2022-10-03T18:21:40.305Z,14.49
2022-10-03T18:24:29.561Z,15.17
2022-10-03T18:26:58.211Z,15.08
2022-10-03T18:29:33.015Z,14.88
2022-10-03T18:32:13.627Z,14.78
2022-10-03T18:34:44.984Z,15.38
2022-10-03T18:37:27.666Z,15.39
2022-10-03T18:39:57.233Z,15.13
2022-10-03T18:42:30.383Z,15.02
2022-10-03T18:44:59.954Z,15.67
2022-10-03T18:47:37.680Z,15.82
2022-10-03T18:50:29.341Z,15.48
2022-10-03T18:53:28.116Z,15.52
2022-10-03T18:56:03.503Z,14.81
2022-10-03T18:58:41.301Z,14.88
2022-10-03T19:01:25.604Z,15.12
2022-10-03T19:03:58.851Z,14.82
2022-10-03T19:06:30.454Z,15.21
2022-10-03T19:09:25.846Z,15.80
2022-10-03T19:12:08.944Z,16.00
2022-10-03T19:15:13.634Z,15.70
2022-10-03T19:18:18.453Z,15.74
2022-10-03T19:20:47.588Z,15.36
2022-10-03T19:23:26.825Z,15.19
2022-10-03T19:25:57.565Z,14.56
2022-10-03T19:28:32.176Z,14.30
2022-10-03T19:31:07.033Z,14.77
2022-10-03T19:33:44.011Z,14.36
2022-10-03T19:36:16.853Z,14.32
2022-10-03T19:38:48.490Z,15.19
2022-10-03T19:41:35.610Z,15.23
2022-10-03T19:44:08.914Z,14.41
2022-10-03T19:46:48.905Z,14.81
2022-10-03T19:49:26.240Z,14.65
2022-10-03T19:52:15.800Z,14.40
2022-10-03T19:55:09.083Z,14.63
2022-10-03T19:57:49.467Z,15.41
2022-10-03T20:00:23.046Z,15.09
2022-10-03T20:03:21.499Z,15.52
2022-10-03T20:06:16.272Z,15.47
2022-10-03T20:09:06.415Z,15.25
2022-10-03T20:11:39.420Z,15.61
2022-10-03T20:14:11.077Z,15.58
2022-10-03T20:16:43.273Z,15.64
2022-10-03T20:19:22.012Z,15.50
2022-10-03T20:21:54.327Z,15.22
2022-10-03T20:24:42.100Z,15.12
2022-10-03T20:27:28.347Z,15.63
2022-10-03T20:30:37.578Z,15.79
2022-10-03T20:33:05.632Z,15.48
2022-10-03T20:35:42.436Z,15.84
2022-10-03T20:38:12.957Z,15.50
2022-10-03T20:40:44.159Z,15.73
2022-10-03T20:43:21.638Z,15.74
2022-10-03T20:46:10.510Z,15.89
2022-10-03T20:48:40.805Z,15.93
2022-10-03T20:51:24.122Z,16.10
2022-10-03T20:53:54.799Z,15.98
2022-10-03T20:56:28.666Z,15.77
2022-10-03T20:58:57.213Z,15.95
2022-10-03T21:01:28.794Z,15.63
2022-10-03T21:04:19.370Z,15.88
2022-10-03T21:07:04.693Z,16.12
2022-10-03T21:09:53.989Z,15.89
2022-10-03T21:12:26.374Z,15.63
2022-10-03T21:15:04.795Z,15.91
2022-10-03T21:17:32.838Z,16.04
2022-10-03T21:20:07.016Z,16.05
2022-10-03T21:22:35.126Z,16.10
2022-10-03T21:25:08.520Z,15.81
2022-10-03T21:27:47.957Z,16.17
2022-10-03T21:30:22.271Z,16.11
2022-10-03T21:33:03.044Z,15.93
2022-10-03T21:35:34.157Z,16.17
2022-10-03T21:38:19.731Z,16.20
2022-10-03T21:41:21.293Z,16.13
2022-10-03T21:43:54.843Z,16.05
2022-10-03T21:46:36.857Z,15.68
2022-10-03T21:49:39.461Z,16.13
2022-10-03T21:52:09.970Z,16.00
2022-10-03T21:54:43.296Z,16.06
2022-10-03T21:57:27.004Z,15.67
2022-10-03T22:00:08.902Z,15.91
2022-10-03T22:02:45.473Z,15.70
2022-10-03T22:05:39.177Z,15.28
2022-10-03T22:08:26.435Z,14.35
2022-10-03T22:11:03.054Z,15.08
2022-10-03T22:13:34.466Z,14.62
2022-10-03T22:16:14.397Z,14.14
2022-10-03T22:19:02.107Z,14.80
2022-10-03T22:21:46.028Z,14.53
2022-10-03T22:24:33.390Z,15.43
2022-10-03T22:27:21.161Z,15.45
2022-10-03T22:30:09.843Z,15.76
2022-10-03T22:33:08.447Z,15.90
2022-10-03T22:35:49.425Z,15.98
2022-10-03T22:38:17.957Z,16.03
2022-10-03T22:40:46.718Z,15.62
2022-10-03T22:43:15.381Z,15.11
2022-10-03T22:45:45.744Z,15.57
2022-10-03T22:48:22.022Z,15.54
2022-10-03T22:50:51.030Z,15.83
2022-10-03T22:53:21.056Z,15.88
2022-10-03T22:55:56.348Z,15.82
2022-10-03T22:58:25.540Z,15.98
2022-10-03T23:00:54.717Z,16.09
2022-10-03T23:03:40.099Z,16.15
2022-10-03T23:06:16.616Z,16.16
2022-10-03T23:09:08.813Z,16.06
2022-10-03T23:11:37.352Z,15.36
2022-10-03T23:14:20.277Z,15.21
2022-10-03T23:16:59.504Z,15.51
2022-10-03T23:19:47.906Z,15.82
2022-10-03T23:22:18.177Z,15.86
2022-10-03T23:25:19.281Z,15.51
2022-10-03T23:28:21.526Z,14.96
2022-10-03T23:30:51.615Z,15.20
2022-10-03T23:33:32.473Z,15.10
2022-10-03T23:36:16.934Z,15.13
2022-10-03T23:38:44.502Z,14.67
2022-10-03T23:41:30.892Z,15.33
2022-10-03T23:43:59.284Z,13.56
2022-10-03T23:46:28.639Z,14.33
2022-10-03T23:48:58.669Z,13.69
2022-10-03T23:51:30.317Z,14.53
2022-10-03T23:54:02.581Z,14.30
2022-10-03T23:56:37.278Z,14.10
2022-10-03T23:59:05.141Z,14.35
